sensor_id;sensor_type;location;lat;lon;timestamp;P1;durP1;ratioP1;P2;durP2;ratioP2
72125;SDS011;59999;51.676;22.650;2023-03-14T00:01:14;10.05;;;4.40;;
72125;SDS011;59999;51.676;22.650;2023-03-14T00:03:42;11.00;;;4.50;;
72125;SDS011;59999;51.676;22.650;2023-03-14T00:06:09;10.57;;;3.92;;
72125;SDS011;59999;51.676;22.650;2023-03-14T00:08:36;9.75;;;3.97;;
72125;SDS011;59999;51.676;22.650;2023-03-14T00:11:08;10.60;;;4.30;;
72125;SDS011;59999;51.676;22.650;2023-03-14T00:13:39;8.70;;;3.60;;
72125;SDS011;59999;51.676;22.650;2023-03-14T00:16:07;10.27;;;4.43;;
72125;SDS011;59999;51.676;22.650;2023-03-14T00:18:35;10.70;;;4.90;;
72125;SDS011;59999;51.676;22.650;2023-03-14T00:21:02;11.38;;;4.40;;
72125;SDS011;59999;51.676;22.650;2023-03-14T00:23:29;9.02;;;3.90;;
72125;SDS011;59999;51.676;22.650;2023-03-14T00:26:08;10.68;;;3.83;;
72125;SDS011;59999;51.676;22.650;2023-03-14T00:28:39;11.13;;;4.40;;
72125;SDS011;59999;51.676;22.650;2023-03-14T00:31:06;10.07;;;4.10;;
72125;SDS011;59999;51.676;22.650;2023-03-14T00:33:33;12.13;;;5.07;;
72125;SDS011;59999;51.676;22.650;2023-03-14T00:36:02;10.20;;;4.78;;
72125;SDS011;59999;51.676;22.650;2023-03-14T00:38:34;9.93;;;4.40;;
72125;SDS011;59999;51.676;22.650;2023-03-14T00:41:04;9.33;;;4.20;;
72125;SDS011;59999;51.676;22.650;2023-03-14T00:43:32;12.52;;;4.45;;
72125;SDS011;59999;51.676;22.650;2023-03-14T00:45:58;14.55;;;4.60;;
72125;SDS011;59999;51.676;22.650;2023-03-14T00:48:24;11.32;;;4.85;;
72125;SDS011;59999;51.676;22.650;2023-03-14T00:50:50;11.10;;;4.60;;
72125;SDS011;59999;51.676;22.650;2023-03-14T00:53:16;12.77;;;5.20;;
72125;SDS011;59999;51.676;22.650;2023-03-14T00:55:43;9.82;;;4.68;;
72125;SDS011;59999;51.676;22.650;2023-03-14T00:58:10;14.02;;;5.28;;
72125;SDS011;59999;51.676;22.650;2023-03-14T01:00:37;9.60;;;4.32;;
72125;SDS011;59999;51.676;22.650;2023-03-14T01:03:04;10.17;;;4.43;;
72125;SDS011;59999;51.676;22.650;2023-03-14T01:05:30;10.07;;;4.55;;
72125;SDS011;59999;51.676;22.650;2023-03-14T01:07:56;10.25;;;4.70;;
72125;SDS011;59999;51.676;22.650;2023-03-14T01:10:22;11.25;;;4.75;;
72125;SDS011;59999;51.676;22.650;2023-03-14T01:12:49;11.13;;;5.00;;
72125;SDS011;59999;51.676;22.650;2023-03-14T01:15:15;11.40;;;4.32;;
72125;SDS011;59999;51.676;22.650;2023-03-14T01:17:41;12.95;;;4.70;;
72125;SDS011;59999;51.676;22.650;2023-03-14T01:20:08;9.60;;;4.15;;
72125;SDS011;59999;51.676;22.650;2023-03-14T01:22:36;12.13;;;5.10;;
72125;SDS011;59999;51.676;22.650;2023-03-14T01:25:09;11.57;;;4.53;;
72125;SDS011;59999;51.676;22.650;2023-03-14T01:27:36;9.38;;;3.70;;
72125;SDS011;59999;51.676;22.650;2023-03-14T01:30:03;12.38;;;4.50;;
72125;SDS011;59999;51.676;22.650;2023-03-14T01:32:29;12.13;;;4.30;;
72125;SDS011;59999;51.676;22.650;2023-03-14T01:34:56;11.20;;;4.10;;
72125;SDS011;59999;51.676;22.650;2023-03-14T01:37:21;8.90;;;3.70;;
72125;SDS011;59999;51.676;22.650;2023-03-14T01:39:48;10.18;;;4.30;;
72125;SDS011;59999;51.676;22.650;2023-03-14T01:42:14;10.57;;;4.30;;
72125;SDS011;59999;51.676;22.650;2023-03-14T01:44:48;10.40;;;3.92;;
72125;SDS011;59999;51.676;22.650;2023-03-14T01:47:18;9.23;;;3.72;;
72125;SDS011;59999;51.676;22.650;2023-03-14T01:50:06;9.55;;;4.50;;
72125;SDS011;59999;51.676;22.650;2023-03-14T01:52:43;12.52;;;4.50;;
72125;SDS011;59999;51.676;22.650;2023-03-14T01:55:12;10.07;;;4.07;;
72125;SDS011;59999;51.676;22.650;2023-03-14T01:57:45;10.13;;;4.13;;
72125;SDS011;59999;51.676;22.650;2023-03-14T02:00:16;12.80;;;4.70;;
72125;SDS011;59999;51.676;22.650;2023-03-14T02:02:45;10.02;;;3.88;;
72125;SDS011;59999;51.676;22.650;2023-03-14T02:05:15;10.02;;;3.70;;
72125;SDS011;59999;51.676;22.650;2023-03-14T02:07:48;10.73;;;4.23;;
72125;SDS011;59999;51.676;22.650;2023-03-14T02:10:17;9.50;;;4.20;;
72125;SDS011;59999;51.676;22.650;2023-03-14T02:12:46;9.85;;;3.90;;
72125;SDS011;59999;51.676;22.650;2023-03-14T02:15:13;10.40;;;3.70;;
72125;SDS011;59999;51.676;22.650;2023-03-14T02:17:40;10.13;;;3.80;;
72125;SDS011;59999;51.676;22.650;2023-03-14T02:22:38;10.05;;;2.92;;
72125;SDS011;59999;51.676;22.650;2023-03-14T02:25:08;10.80;;;4.05;;
72125;SDS011;59999;51.676;22.650;2023-03-14T02:27:39;9.73;;;3.90;;
72125;SDS011;59999;51.676;22.650;2023-03-14T02:30:07;9.98;;;4.43;;
72125;SDS011;59999;51.676;22.650;2023-03-14T02:32:37;9.35;;;3.58;;
72125;SDS011;59999;51.676;22.650;2023-03-14T02:35:08;9.02;;;3.60;;
72125;SDS011;59999;51.676;22.650;2023-03-14T02:37:47;8.95;;;3.47;;
72125;SDS011;59999;51.676;22.650;2023-03-14T02:40:20;9.48;;;3.53;;
72125;SDS011;59999;51.676;22.650;2023-03-14T02:42:46;12.82;;;3.92;;
72125;SDS011;59999;51.676;22.650;2023-03-14T02:47:44;8.43;;;3.13;;
72125;SDS011;59999;51.676;22.650;2023-03-14T02:50:18;11.02;;;3.63;;
72125;SDS011;59999;51.676;22.650;2023-03-14T02:52:47;9.82;;;3.88;;
72125;SDS011;59999;51.676;22.650;2023-03-14T02:55:14;10.90;;;3.60;;
72125;SDS011;59999;51.676;22.650;2023-03-14T02:57:40;10.40;;;3.78;;
72125;SDS011;59999;51.676;22.650;2023-03-14T03:00:06;8.90;;;3.97;;
72125;SDS011;59999;51.676;22.650;2023-03-14T03:02:33;7.20;;;3.20;;
72125;SDS011;59999;51.676;22.650;2023-03-14T03:05:00;7.60;;;2.97;;
72125;SDS011;59999;51.676;22.650;2023-03-14T03:07:26;9.60;;;3.33;;
72125;SDS011;59999;51.676;22.650;2023-03-14T03:09:52;7.70;;;3.15;;
72125;SDS011;59999;51.676;22.650;2023-03-14T03:12:18;9.63;;;3.80;;
72125;SDS011;59999;51.676;22.650;2023-03-14T03:14:44;9.90;;;3.70;;
72125;SDS011;59999;51.676;22.650;2023-03-14T03:17:10;8.88;;;3.60;;
72125;SDS011;59999;51.676;22.650;2023-03-14T03:19:36;7.85;;;3.45;;
72125;SDS011;59999;51.676;22.650;2023-03-14T03:22:01;10.90;;;3.80;;
72125;SDS011;59999;51.676;22.650;2023-03-14T03:24:28;8.52;;;3.35;;
72125;SDS011;59999;51.676;22.650;2023-03-14T03:26:53;9.73;;;3.67;;
72125;SDS011;59999;51.676;22.650;2023-03-14T03:29:20;9.68;;;3.88;;
72125;SDS011;59999;51.676;22.650;2023-03-14T03:31:46;8.35;;;3.00;;
72125;SDS011;59999;51.676;22.650;2023-03-14T03:34:13;9.18;;;3.40;;
72125;SDS011;59999;51.676;22.650;2023-03-14T03:36:39;8.88;;;3.92;;
72125;SDS011;59999;51.676;22.650;2023-03-14T03:39:05;8.60;;;3.67;;
72125;SDS011;59999;51.676;22.650;2023-03-14T03:41:32;10.98;;;3.95;;
72125;SDS011;59999;51.676;22.650;2023-03-14T03:43:58;8.38;;;3.40;;
72125;SDS011;59999;51.676;22.650;2023-03-14T03:46:24;11.18;;;3.70;;
72125;SDS011;59999;51.676;22.650;2023-03-14T03:48:54;8.77;;;3.25;;
72125;SDS011;59999;51.676;22.650;2023-03-14T03:51:21;8.07;;;3.17;;
72125;SDS011;59999;51.676;22.650;2023-03-14T03:53:47;8.02;;;2.90;;
72125;SDS011;59999;51.676;22.650;2023-03-14T03:56:13;7.60;;;2.80;;
72125;SDS011;59999;51.676;22.650;2023-03-14T03:58:39;8.25;;;3.30;;
72125;SDS011;59999;51.676;22.650;2023-03-14T04:01:05;10.80;;;3.67;;
72125;SDS011;59999;51.676;22.650;2023-03-14T04:03:35;8.90;;;3.03;;
72125;SDS011;59999;51.676;22.650;2023-03-14T04:06:01;10.50;;;3.17;;
72125;SDS011;59999;51.676;22.650;2023-03-14T04:08:30;9.98;;;3.50;;
72125;SDS011;59999;51.676;22.650;2023-03-14T04:10:56;8.00;;;2.77;;
72125;SDS011;59999;51.676;22.650;2023-03-14T04:13:24;9.85;;;3.10;;
72125;SDS011;59999;51.676;22.650;2023-03-14T04:15:50;9.50;;;3.28;;
72125;SDS011;59999;51.676;22.650;2023-03-14T04:18:17;9.70;;;2.90;;
72125;SDS011;59999;51.676;22.650;2023-03-14T04:20:43;8.65;;;3.30;;
72125;SDS011;59999;51.676;22.650;2023-03-14T04:23:09;8.82;;;3.13;;
72125;SDS011;59999;51.676;22.650;2023-03-14T04:25:35;8.05;;;2.80;;
72125;SDS011;59999;51.676;22.650;2023-03-14T04:28:01;9.43;;;2.67;;
72125;SDS011;59999;51.676;22.650;2023-03-14T04:30:29;8.07;;;2.90;;
72125;SDS011;59999;51.676;22.650;2023-03-14T04:32:55;7.57;;;2.97;;
72125;SDS011;59999;51.676;22.650;2023-03-14T04:35:21;9.38;;;2.83;;
72125;SDS011;59999;51.676;22.650;2023-03-14T04:37:47;8.45;;;2.67;;
72125;SDS011;59999;51.676;22.650;2023-03-14T04:40:14;8.32;;;3.10;;
72125;SDS011;59999;51.676;22.650;2023-03-14T04:42:41;10.67;;;3.07;;
72125;SDS011;59999;51.676;22.650;2023-03-14T04:45:07;6.80;;;2.70;;
72125;SDS011;59999;51.676;22.650;2023-03-14T04:47:33;8.57;;;2.90;;
72125;SDS011;59999;51.676;22.650;2023-03-14T04:49:59;7.73;;;2.90;;
72125;SDS011;59999;51.676;22.650;2023-03-14T04:52:26;7.63;;;2.80;;
72125;SDS011;59999;51.676;22.650;2023-03-14T04:54:52;8.77;;;2.80;;
72125;SDS011;59999;51.676;22.650;2023-03-14T04:57:18;8.15;;;2.72;;
72125;SDS011;59999;51.676;22.650;2023-03-14T04:59:44;7.80;;;2.92;;
72125;SDS011;59999;51.676;22.650;2023-03-14T05:02:10;7.53;;;2.60;;
72125;SDS011;59999;51.676;22.650;2023-03-14T05:04:36;8.05;;;2.72;;
72125;SDS011;59999;51.676;22.650;2023-03-14T05:07:02;7.47;;;3.08;;
72125;SDS011;59999;51.676;22.650;2023-03-14T05:09:28;8.87;;;2.40;;
72125;SDS011;59999;51.676;22.650;2023-03-14T05:11:54;6.70;;;2.35;;
72125;SDS011;59999;51.676;22.650;2023-03-14T05:14:20;7.40;;;2.58;;
72125;SDS011;59999;51.676;22.650;2023-03-14T05:16:46;8.23;;;2.50;;
72125;SDS011;59999;51.676;22.650;2023-03-14T05:19:11;7.07;;;2.72;;
72125;SDS011;59999;51.676;22.650;2023-03-14T05:21:37;8.77;;;3.00;;
72125;SDS011;59999;51.676;22.650;2023-03-14T05:24:03;7.20;;;2.65;;
72125;SDS011;59999;51.676;22.650;2023-03-14T05:26:30;10.20;;;3.15;;
72125;SDS011;59999;51.676;22.650;2023-03-14T05:28:56;7.50;;;3.20;;
72125;SDS011;59999;51.676;22.650;2023-03-14T05:31:22;6.95;;;2.58;;
72125;SDS011;59999;51.676;22.650;2023-03-14T05:33:47;8.47;;;2.60;;
72125;SDS011;59999;51.676;22.650;2023-03-14T05:36:13;7.50;;;2.75;;
72125;SDS011;59999;51.676;22.650;2023-03-14T05:38:39;8.73;;;2.83;;
72125;SDS011;59999;51.676;22.650;2023-03-14T05:41:06;6.93;;;2.30;;
72125;SDS011;59999;51.676;22.650;2023-03-14T05:43:31;8.38;;;3.33;;
72125;SDS011;59999;51.676;22.650;2023-03-14T05:45:58;8.07;;;2.70;;
72125;SDS011;59999;51.676;22.650;2023-03-14T05:48:23;9.37;;;2.80;;
72125;SDS011;59999;51.676;22.650;2023-03-14T05:50:56;8.52;;;2.67;;
72125;SDS011;59999;51.676;22.650;2023-03-14T05:53:22;8.45;;;2.90;;
72125;SDS011;59999;51.676;22.650;2023-03-14T05:55:52;6.95;;;2.22;;
72125;SDS011;59999;51.676;22.650;2023-03-14T05:58:19;8.45;;;2.92;;
72125;SDS011;59999;51.676;22.650;2023-03-14T06:00:45;7.80;;;2.47;;
72125;SDS011;59999;51.676;22.650;2023-03-14T06:03:11;7.00;;;2.80;;
72125;SDS011;59999;51.676;22.650;2023-03-14T06:05:37;8.23;;;2.50;;
72125;SDS011;59999;51.676;22.650;2023-03-14T06:08:03;7.23;;;3.00;;
72125;SDS011;59999;51.676;22.650;2023-03-14T06:10:29;7.05;;;2.60;;
72125;SDS011;59999;51.676;22.650;2023-03-14T06:12:55;7.15;;;2.55;;
72125;SDS011;59999;51.676;22.650;2023-03-14T06:15:21;9.27;;;2.60;;
72125;SDS011;59999;51.676;22.650;2023-03-14T06:17:47;11.52;;;4.32;;
72125;SDS011;59999;51.676;22.650;2023-03-14T06:20:13;8.23;;;2.70;;
72125;SDS011;59999;51.676;22.650;2023-03-14T06:22:39;7.20;;;2.22;;
72125;SDS011;59999;51.676;22.650;2023-03-14T06:25:06;7.05;;;2.38;;
72125;SDS011;59999;51.676;22.650;2023-03-14T06:27:32;7.32;;;2.45;;
72125;SDS011;59999;51.676;22.650;2023-03-14T06:29:59;9.00;;;2.63;;
72125;SDS011;59999;51.676;22.650;2023-03-14T06:32:25;7.88;;;2.40;;
72125;SDS011;59999;51.676;22.650;2023-03-14T06:34:51;7.15;;;2.65;;
72125;SDS011;59999;51.676;22.650;2023-03-14T06:37:18;8.77;;;3.35;;
72125;SDS011;59999;51.676;22.650;2023-03-14T06:39:44;10.45;;;3.20;;
72125;SDS011;59999;51.676;22.650;2023-03-14T06:42:10;6.95;;;2.60;;
72125;SDS011;59999;51.676;22.650;2023-03-14T06:44:36;12.48;;;3.03;;
72125;SDS011;59999;51.676;22.650;2023-03-14T06:47:02;8.30;;;2.63;;
72125;SDS011;59999;51.676;22.650;2023-03-14T06:49:28;9.15;;;2.75;;
72125;SDS011;59999;51.676;22.650;2023-03-14T06:51:54;8.18;;;3.20;;
72125;SDS011;59999;51.676;22.650;2023-03-14T06:54:20;8.20;;;2.63;;
72125;SDS011;59999;51.676;22.650;2023-03-14T06:56:46;8.20;;;3.05;;
72125;SDS011;59999;51.676;22.650;2023-03-14T06:59:12;8.07;;;2.63;;
72125;SDS011;59999;51.676;22.650;2023-03-14T07:01:38;7.47;;;2.72;;
72125;SDS011;59999;51.676;22.650;2023-03-14T07:04:05;9.00;;;3.10;;
72125;SDS011;59999;51.676;22.650;2023-03-14T07:06:32;10.35;;;3.55;;
72125;SDS011;59999;51.676;22.650;2023-03-14T07:08:59;8.57;;;2.75;;
72125;SDS011;59999;51.676;22.650;2023-03-14T07:11:25;9.60;;;3.45;;
72125;SDS011;59999;51.676;22.650;2023-03-14T07:13:51;6.47;;;2.37;;
72125;SDS011;59999;51.676;22.650;2023-03-14T07:16:17;7.68;;;2.85;;
72125;SDS011;59999;51.676;22.650;2023-03-14T07:18:45;7.90;;;2.40;;
72125;SDS011;59999;51.676;22.650;2023-03-14T07:21:11;10.98;;;3.28;;
72125;SDS011;59999;51.676;22.650;2023-03-14T07:23:38;8.80;;;3.17;;
72125;SDS011;59999;51.676;22.650;2023-03-14T07:26:04;10.75;;;3.80;;
72125;SDS011;59999;51.676;22.650;2023-03-14T07:28:30;7.25;;;2.58;;
72125;SDS011;59999;51.676;22.650;2023-03-14T07:30:56;10.27;;;3.13;;
72125;SDS011;59999;51.676;22.650;2023-03-14T07:33:22;9.45;;;3.40;;
72125;SDS011;59999;51.676;22.650;2023-03-14T07:35:48;7.68;;;2.95;;
72125;SDS011;59999;51.676;22.650;2023-03-14T07:38:15;9.15;;;3.50;;
72125;SDS011;59999;51.676;22.650;2023-03-14T07:40:41;9.97;;;3.43;;
72125;SDS011;59999;51.676;22.650;2023-03-14T07:43:08;11.75;;;4.00;;
72125;SDS011;59999;51.676;22.650;2023-03-14T07:45:34;10.93;;;3.30;;
72125;SDS011;59999;51.676;22.650;2023-03-14T07:48:00;11.07;;;3.47;;
72125;SDS011;59999;51.676;22.650;2023-03-14T07:50:27;9.23;;;3.40;;
72125;SDS011;59999;51.676;22.650;2023-03-14T07:52:54;6.97;;;2.22;;
72125;SDS011;59999;51.676;22.650;2023-03-14T07:55:20;7.57;;;2.80;;
72125;SDS011;59999;51.676;22.650;2023-03-14T07:57:46;9.30;;;2.90;;
72125;SDS011;59999;51.676;22.650;2023-03-14T08:00:12;8.13;;;3.13;;
72125;SDS011;59999;51.676;22.650;2023-03-14T08:02:40;8.75;;;2.90;;
72125;SDS011;59999;51.676;22.650;2023-03-14T08:05:06;8.85;;;3.42;;
72125;SDS011;59999;51.676;22.650;2023-03-14T08:07:32;7.80;;;2.78;;
72125;SDS011;59999;51.676;22.650;2023-03-14T08:09:58;7.43;;;3.10;;
72125;SDS011;59999;51.676;22.650;2023-03-14T08:12:24;7.97;;;3.00;;
72125;SDS011;59999;51.676;22.650;2023-03-14T08:14:50;7.85;;;3.10;;
72125;SDS011;59999;51.676;22.650;2023-03-14T08:17:16;6.85;;;3.00;;
72125;SDS011;59999;51.676;22.650;2023-03-14T08:19:42;7.00;;;2.77;;
72125;SDS011;59999;51.676;22.650;2023-03-14T08:22:08;9.10;;;2.97;;
72125;SDS011;59999;51.676;22.650;2023-03-14T08:24:34;9.47;;;3.20;;
72125;SDS011;59999;51.676;22.650;2023-03-14T08:27:00;8.00;;;3.30;;
72125;SDS011;59999;51.676;22.650;2023-03-14T08:29:26;8.05;;;2.92;;
72125;SDS011;59999;51.676;22.650;2023-03-14T08:31:52;9.45;;;3.05;;
72125;SDS011;59999;51.676;22.650;2023-03-14T08:34:20;8.57;;;3.00;;
72125;SDS011;59999;51.676;22.650;2023-03-14T08:36:46;7.68;;;2.72;;
72125;SDS011;59999;51.676;22.650;2023-03-14T08:39:12;10.30;;;3.35;;
72125;SDS011;59999;51.676;22.650;2023-03-14T08:41:38;7.93;;;3.40;;
72125;SDS011;59999;51.676;22.650;2023-03-14T08:44:09;7.13;;;2.77;;
72125;SDS011;59999;51.676;22.650;2023-03-14T08:46:39;6.35;;;2.55;;
72125;SDS011;59999;51.676;22.650;2023-03-14T08:49:05;7.38;;;2.75;;
72125;SDS011;59999;51.676;22.650;2023-03-14T08:51:31;7.88;;;2.88;;
72125;SDS011;59999;51.676;22.650;2023-03-14T08:53:57;8.90;;;3.20;;
72125;SDS011;59999;51.676;22.650;2023-03-14T08:56:23;6.80;;;2.80;;
72125;SDS011;59999;51.676;22.650;2023-03-14T08:58:49;7.63;;;2.70;;
72125;SDS011;59999;51.676;22.650;2023-03-14T09:01:15;7.75;;;3.10;;
72125;SDS011;59999;51.676;22.650;2023-03-14T09:03:41;8.60;;;3.47;;
72125;SDS011;59999;51.676;22.650;2023-03-14T09:06:08;8.95;;;2.72;;
72125;SDS011;59999;51.676;22.650;2023-03-14T09:08:35;8.88;;;2.83;;
72125;SDS011;59999;51.676;22.650;2023-03-14T09:11:02;5.72;;;1.80;;
72125;SDS011;59999;51.676;22.650;2023-03-14T09:13:28;6.78;;;2.67;;
72125;SDS011;59999;51.676;22.650;2023-03-14T09:15:54;8.07;;;3.13;;
72125;SDS011;59999;51.676;22.650;2023-03-14T09:18:21;8.82;;;2.90;;
72125;SDS011;59999;51.676;22.650;2023-03-14T09:20:48;8.75;;;2.80;;
72125;SDS011;59999;51.676;22.650;2023-03-14T09:23:15;6.53;;;2.70;;
72125;SDS011;59999;51.676;22.650;2023-03-14T09:25:41;7.68;;;2.92;;
72125;SDS011;59999;51.676;22.650;2023-03-14T09:28:07;8.80;;;3.10;;
72125;SDS011;59999;51.676;22.650;2023-03-14T09:30:33;7.47;;;2.85;;
72125;SDS011;59999;51.676;22.650;2023-03-14T09:32:59;7.23;;;3.10;;
72125;SDS011;59999;51.676;22.650;2023-03-14T09:35:25;7.80;;;3.10;;
72125;SDS011;59999;51.676;22.650;2023-03-14T09:37:51;6.40;;;2.72;;
72125;SDS011;59999;51.676;22.650;2023-03-14T09:40:18;8.00;;;3.10;;
72125;SDS011;59999;51.676;22.650;2023-03-14T09:42:47;8.25;;;3.10;;
72125;SDS011;59999;51.676;22.650;2023-03-14T09:45:56;9.43;;;3.03;;
72125;SDS011;59999;51.676;22.650;2023-03-14T09:48:05;7.37;;;2.70;;
72125;SDS011;59999;51.676;22.650;2023-03-14T09:50:45;6.88;;;2.80;;
72125;SDS011;59999;51.676;22.650;2023-03-14T09:53:18;7.72;;;2.72;;
72125;SDS011;59999;51.676;22.650;2023-03-14T09:55:46;6.45;;;2.97;;
72125;SDS011;59999;51.676;22.650;2023-03-14T09:58:16;6.88;;;2.90;;
72125;SDS011;59999;51.676;22.650;2023-03-14T10:00:45;7.07;;;2.60;;
72125;SDS011;59999;51.676;22.650;2023-03-14T10:05:37;6.43;;;2.60;;
72125;SDS011;59999;51.676;22.650;2023-03-14T10:08:04;7.90;;;3.08;;
72125;SDS011;59999;51.676;22.650;2023-03-14T10:10:31;8.18;;;3.15;;
72125;SDS011;59999;51.676;22.650;2023-03-14T10:12:59;6.40;;;2.53;;
72125;SDS011;59999;51.676;22.650;2023-03-14T10:15:34;8.60;;;3.15;;
72125;SDS011;59999;51.676;22.650;2023-03-14T10:18:01;7.35;;;2.15;;
72125;SDS011;59999;51.676;22.650;2023-03-14T10:20:36;7.85;;;2.72;;
72125;SDS011;59999;51.676;22.650;2023-03-14T10:23:04;7.75;;;3.00;;
72125;SDS011;59999;51.676;22.650;2023-03-14T10:25:34;9.10;;;3.17;;
72125;SDS011;59999;51.676;22.650;2023-03-14T10:28:01;7.13;;;2.83;;
72125;SDS011;59999;51.676;22.650;2023-03-14T10:33:23;6.38;;;2.90;;
72125;SDS011;59999;51.676;22.650;2023-03-14T10:35:54;7.43;;;3.40;;
72125;SDS011;59999;51.676;22.650;2023-03-14T10:38:27;8.47;;;3.00;;
72125;SDS011;59999;51.676;22.650;2023-03-14T10:40:57;8.52;;;3.28;;
72125;SDS011;59999;51.676;22.650;2023-03-14T10:43:34;6.05;;;2.40;;
72125;SDS011;59999;51.676;22.650;2023-03-14T10:46:05;7.95;;;3.65;;
72125;SDS011;59999;51.676;22.650;2023-03-14T10:48:43;9.20;;;3.20;;
72125;SDS011;59999;51.676;22.650;2023-03-14T10:56:39;9.88;;;3.75;;
72125;SDS011;59999;51.676;22.650;2023-03-14T10:59:06;12.82;;;3.83;;
72125;SDS011;59999;51.676;22.650;2023-03-14T11:01:40;7.97;;;3.50;;
72125;SDS011;59999;51.676;22.650;2023-03-14T11:06:43;7.43;;;3.03;;
72125;SDS011;59999;51.676;22.650;2023-03-14T11:09:25;7.32;;;2.53;;
72125;SDS011;59999;51.676;22.650;2023-03-14T11:11:55;6.15;;;2.47;;
72125;SDS011;59999;51.676;22.650;2023-03-14T11:14:38;6.90;;;2.60;;
72125;SDS011;59999;51.676;22.650;2023-03-14T11:22:46;7.65;;;3.05;;
72125;SDS011;59999;51.676;22.650;2023-03-14T11:28:26;7.40;;;2.80;;
72125;SDS011;59999;51.676;22.650;2023-03-14T11:31:12;8.43;;;3.20;;
72125;SDS011;59999;51.676;22.650;2023-03-14T11:36:36;9.23;;;3.20;;
72125;SDS011;59999;51.676;22.650;2023-03-14T11:39:12;6.20;;;2.60;;
72125;SDS011;59999;51.676;22.650;2023-03-14T11:41:41;7.22;;;2.70;;
72125;SDS011;59999;51.676;22.650;2023-03-14T11:44:21;6.77;;;2.53;;
72125;SDS011;59999;51.676;22.650;2023-03-14T11:49:31;7.35;;;2.95;;
72125;SDS011;59999;51.676;22.650;2023-03-14T11:52:01;6.53;;;2.88;;
72125;SDS011;59999;51.676;22.650;2023-03-14T11:54:41;7.97;;;2.63;;
72125;SDS011;59999;51.676;22.650;2023-03-14T11:57:15;7.07;;;3.13;;
72125;SDS011;59999;51.676;22.650;2023-03-14T11:59:55;6.85;;;2.95;;
72125;SDS011;59999;51.676;22.650;2023-03-14T12:13:10;7.28;;;3.15;;
72125;SDS011;59999;51.676;22.650;2023-03-14T12:15:39;7.70;;;2.90;;
72125;SDS011;59999;51.676;22.650;2023-03-14T12:18:25;7.60;;;2.72;;
72125;SDS011;59999;51.676;22.650;2023-03-14T12:20:57;6.40;;;2.70;;
72125;SDS011;59999;51.676;22.650;2023-03-14T12:23:26;8.00;;;3.00;;
72125;SDS011;59999;51.676;22.650;2023-03-14T12:26:06;10.18;;;3.20;;
72125;SDS011;59999;51.676;22.650;2023-03-14T12:28:43;10.07;;;3.08;;
72125;SDS011;59999;51.676;22.650;2023-03-14T12:50:31;6.90;;;2.57;;
72125;SDS011;59999;51.676;22.650;2023-03-14T12:53:15;8.60;;;2.78;;
72125;SDS011;59999;51.676;22.650;2023-03-14T12:55:49;7.90;;;3.30;;
72125;SDS011;59999;51.676;22.650;2023-03-14T13:01:01;7.93;;;2.80;;
72125;SDS011;59999;51.676;22.650;2023-03-14T13:03:41;7.43;;;3.22;;
72125;SDS011;59999;51.676;22.650;2023-03-14T13:06:11;7.57;;;2.80;;
72125;SDS011;59999;51.676;22.650;2023-03-14T13:08:44;7.82;;;3.28;;
72125;SDS011;59999;51.676;22.650;2023-03-14T13:11:12;6.78;;;3.25;;
72125;SDS011;59999;51.676;22.650;2023-03-14T13:13:45;8.20;;;3.20;;
72125;SDS011;59999;51.676;22.650;2023-03-14T13:16:15;6.05;;;2.17;;
72125;SDS011;59999;51.676;22.650;2023-03-14T13:18:47;8.63;;;3.53;;
72125;SDS011;59999;51.676;22.650;2023-03-14T13:21:21;8.38;;;2.85;;
72125;SDS011;59999;51.676;22.650;2023-03-14T13:23:59;7.25;;;2.78;;
72125;SDS011;59999;51.676;22.650;2023-03-14T13:26:35;7.83;;;2.67;;
72125;SDS011;59999;51.676;22.650;2023-03-14T13:29:16;9.75;;;3.80;;
72125;SDS011;59999;51.676;22.650;2023-03-14T13:31:45;9.45;;;3.10;;
72125;SDS011;59999;51.676;22.650;2023-03-14T13:34:12;8.00;;;2.80;;
72125;SDS011;59999;51.676;22.650;2023-03-14T13:36:39;8.68;;;3.10;;
72125;SDS011;59999;51.676;22.650;2023-03-14T13:39:09;8.50;;;3.70;;
72125;SDS011;59999;51.676;22.650;2023-03-14T13:41:38;6.82;;;3.08;;
72125;SDS011;59999;51.676;22.650;2023-03-14T13:44:07;10.00;;;4.07;;
72125;SDS011;59999;51.676;22.650;2023-03-14T13:46:37;10.05;;;4.28;;
72125;SDS011;59999;51.676;22.650;2023-03-14T13:49:05;6.97;;;3.10;;
72125;SDS011;59999;51.676;22.650;2023-03-14T13:51:36;8.03;;;3.10;;
72125;SDS011;59999;51.676;22.650;2023-03-14T13:54:11;9.40;;;3.83;;
72125;SDS011;59999;51.676;22.650;2023-03-14T13:56:39;9.32;;;3.63;;
72125;SDS011;59999;51.676;22.650;2023-03-14T13:59:27;8.77;;;3.35;;
72125;SDS011;59999;51.676;22.650;2023-03-14T14:01:53;9.88;;;3.97;;
72125;SDS011;59999;51.676;22.650;2023-03-14T14:04:22;10.00;;;3.77;;
72125;SDS011;59999;51.676;22.650;2023-03-14T14:09:27;10.15;;;3.80;;
72125;SDS011;59999;51.676;22.650;2023-03-14T14:11:56;8.50;;;3.70;;
72125;SDS011;59999;51.676;22.650;2023-03-14T14:14:32;11.90;;;4.90;;
72125;SDS011;59999;51.676;22.650;2023-03-14T14:17:01;12.03;;;3.53;;
72125;SDS011;59999;51.676;22.650;2023-03-14T14:19:38;10.57;;;3.92;;
72125;SDS011;59999;51.676;22.650;2023-03-14T14:22:05;10.45;;;4.38;;
72125;SDS011;59999;51.676;22.650;2023-03-14T14:24:33;9.55;;;3.60;;
72125;SDS011;59999;51.676;22.650;2023-03-14T14:29:36;8.87;;;3.80;;
72125;SDS011;59999;51.676;22.650;2023-03-14T14:32:03;12.25;;;4.25;;
72125;SDS011;59999;51.676;22.650;2023-03-14T14:34:47;13.52;;;5.82;;
72125;SDS011;59999;51.676;22.650;2023-03-14T14:40:00;9.90;;;4.47;;
72125;SDS011;59999;51.676;22.650;2023-03-14T14:42:33;11.30;;;6.18;;
72125;SDS011;59999;51.676;22.650;2023-03-14T14:44:59;12.85;;;6.05;;
72125;SDS011;59999;51.676;22.650;2023-03-14T14:47:28;12.70;;;5.88;;
72125;SDS011;59999;51.676;22.650;2023-03-14T14:49:56;10.18;;;4.60;;
72125;SDS011;59999;51.676;22.650;2023-03-14T14:52:37;9.13;;;4.20;;
72125;SDS011;59999;51.676;22.650;2023-03-14T14:55:19;15.25;;;5.53;;
72125;SDS011;59999;51.676;22.650;2023-03-14T14:57:52;10.02;;;4.50;;
72125;SDS011;59999;51.676;22.650;2023-03-14T15:00:20;14.07;;;5.15;;
72125;SDS011;59999;51.676;22.650;2023-03-14T15:02:54;11.27;;;4.97;;
72125;SDS011;59999;51.676;22.650;2023-03-14T15:05:26;10.27;;;5.07;;
72125;SDS011;59999;51.676;22.650;2023-03-14T15:07:55;10.98;;;4.80;;
72125;SDS011;59999;51.676;22.650;2023-03-14T15:10:23;9.43;;;4.20;;
72125;SDS011;59999;51.676;22.650;2023-03-14T15:12:50;11.35;;;4.32;;
72125;SDS011;59999;51.676;22.650;2023-03-14T15:15:17;8.75;;;3.78;;
72125;SDS011;59999;51.676;22.650;2023-03-14T15:17:43;11.63;;;4.80;;
72125;SDS011;59999;51.676;22.650;2023-03-14T15:20:10;13.88;;;5.22;;
72125;SDS011;59999;51.676;22.650;2023-03-14T15:22:39;8.88;;;4.15;;
72125;SDS011;59999;51.676;22.650;2023-03-14T15:25:06;11.27;;;4.20;;
72125;SDS011;59999;51.676;22.650;2023-03-14T15:27:33;12.10;;;5.50;;
72125;SDS011;59999;51.676;22.650;2023-03-14T15:30:00;10.67;;;4.83;;
72125;SDS011;59999;51.676;22.650;2023-03-14T15:32:26;11.90;;;5.07;;
72125;SDS011;59999;51.676;22.650;2023-03-14T15:34:54;10.98;;;5.15;;
72125;SDS011;59999;51.676;22.650;2023-03-14T15:37:20;13.02;;;5.70;;
72125;SDS011;59999;51.676;22.650;2023-03-14T15:39:46;10.63;;;4.88;;
72125;SDS011;59999;51.676;22.650;2023-03-14T15:42:12;10.30;;;4.50;;
72125;SDS011;59999;51.676;22.650;2023-03-14T15:44:39;10.38;;;4.57;;
72125;SDS011;59999;51.676;22.650;2023-03-14T15:47:05;10.93;;;5.05;;
72125;SDS011;59999;51.676;22.650;2023-03-14T15:49:32;11.90;;;5.25;;
72125;SDS011;59999;51.676;22.650;2023-03-14T15:51:58;15.00;;;6.37;;